Time;durP1;ratioP1;P1;durP2;ratioP2;P2;SDS_P1;SDS_P2;PMS_P1;PMS_P2;Temp;Humidity;BMP_temperature;BMP_pressure;BME280_temperature;BME280_humidity;BME280_pressure;Samples;Min_cycle;Max_cycle;Signal;HPM_P1;HPM_P2
2021/01/11 00:01:22;;;;;;;113.75;56.10;;;;;;;1.57;100.00;101725.47;6274159;22;20070;-84
2021/01/11 00:03:47;;;;;;;104.03;53.60;;;;;;;1.56;100.00;101734.38;6274864;22;20501;-83
2021/01/11 00:06:12;;;;;;;102.13;53.75;;;;;;;1.55;100.00;101732.63;6274255;22;20086;-83
2021/01/11 00:08:38;;;;;;;100.25;54.63;;;;;;;1.56;100.00;101724.63;6247029;22;20097;-84
2021/01/11 00:11:03;;;;;;;98.13;48.15;;;;;;;1.54;100.00;101723.84;6246364;22;20018;-86
2021/01/11 00:13:28;;;;;;;108.22;60.38;;;;;;;1.59;100.00;101728.91;6251608;22;20020;-84
2021/01/11 00:15:54;;;;;;;99.80;52.05;;;;;;;1.58;100.00;101716.59;6246364;22;20387;-84
2021/01/11 00:18:19;;;;;;;109.18;58.40;;;;;;;1.61;100.00;101732.31;6272415;22;20492;-84
2021/01/11 00:20:45;;;;;;;102.32;56.58;;;;;;;1.59;100.00;101731.56;6271523;22;20054;-84
2021/01/11 00:23:10;;;;;;;93.35;48.65;;;;;;;1.58;100.00;101727.19;6273989;22;20089;-84
2021/01/11 00:25:36;;;;;;;98.57;49.88;;;;;;;1.59;100.00;101723.63;6274192;22;20627;-84
2021/01/11 00:28:01;;;;;;;96.90;54.22;;;;;;;1.58;100.00;101713.94;6273872;22;20019;-84
2021/01/11 00:30:26;;;;;;;101.97;51.95;;;;;;;1.61;100.00;101718.22;6272111;22;20030;-84
2021/01/11 00:32:52;;;;;;;94.85;48.20;;;;;;;1.60;100.00;101706.78;6273892;22;20064;-84
2021/01/11 00:35:17;;;;;;;90.00;44.83;;;;;;;1.56;100.00;101706.13;6275480;22;20058;-84
2021/01/11 00:37:42;;;;;;;100.40;50.65;;;;;;;1.60;100.00;101709.44;6299091;22;20012;-84
2021/01/11 00:40:08;;;;;;;100.82;51.55;;;;;;;1.62;100.00;101709.38;6298513;22;20083;-84
2021/01/11 00:42:35;;;;;;;101.47;51.05;;;;;;;1.63;100.00;101703.13;6274615;22;20023;-84
2021/01/11 00:45:02;;;;;;;97.82;48.15;;;;;;;1.63;100.00;101714.56;6271716;22;20023;-85
2021/01/11 00:47:28;;;;;;;102.47;56.33;;;;;;;1.65;100.00;101710.03;6297919;22;20019;-83
2021/01/11 00:49:53;;;;;;;98.57;49.83;;;;;;;1.65;100.00;101703.91;6298450;22;20016;-84
2021/01/11 00:52:18;;;;;;;100.63;52.63;;;;;;;1.65;100.00;101711.84;6298579;22;20536;-84
2021/01/11 00:54:44;;;;;;;98.70;53.10;;;;;;;1.64;100.00;101713.63;6274159;22;20023;-84
2021/01/11 00:57:09;;;;;;;93.43;40.15;;;;;;;1.65;100.00;101709.19;6275260;22;20023;-85
2021/01/11 00:59:34;;;;;;;98.88;53.85;;;;;;;1.65;100.00;101707.41;6298435;22;20016;-85
2021/01/11 01:02:03;;;;;;;99.88;54.08;;;;;;;1.66;100.00;101703.81;6272686;22;20091;-85
2021/01/11 01:04:29;;;;;;;94.28;47.95;;;;;;;1.63;100.00;101692.53;6272682;22;20048;-85
2021/01/11 01:07:01;;;;;;;103.03;52.97;;;;;;;1.64;100.00;101700.41;6272195;22;20011;-85
2021/01/11 01:09:26;;;;;;;91.18;42.80;;;;;;;1.63;100.00;101703.97;6273139;22;20012;-85
2021/01/11 01:11:51;;;;;;;100.82;53.55;;;;;;;1.67;100.00;101691.41;6272733;22;20026;-85
2021/01/11 01:14:17;;;;;;;102.30;53.00;;;;;;;1.68;100.00;101701.09;6272901;22;20020;-85
2021/01/11 01:16:42;;;;;;;87.75;41.42;;;;;;;1.64;100.00;101702.19;6273682;22;20019;-85
2021/01/11 01:19:07;;;;;;;100.03;48.38;;;;;;;1.64;100.00;101702.19;6299238;22;20030;-86
2021/01/11 01:21:33;;;;;;;100.57;52.20;;;;;;;1.65;100.00;101695.97;6275657;22;20024;-85
2021/01/11 01:23:58;;;;;;;93.20;52.67;;;;;;;1.63;100.00;101692.53;6275248;22;20020;-85
2021/01/11 01:26:24;;;;;;;96.15;46.80;;;;;;;1.65;100.00;101701.25;6247123;22;20019;-85
2021/01/11 01:28:49;;;;;;;101.60;56.97;;;;;;;1.67;100.00;101699.34;6270025;22;20069;-85
2021/01/11 01:31:14;;;;;;;109.50;58.97;;;;;;;1.66;100.00;101697.66;6272817;22;20069;-85
2021/01/11 01:33:40;;;;;;;108.00;54.58;;;;;;;1.66;100.00;101701.16;6274344;22;20015;-85
2021/01/11 01:36:06;;;;;;;106.38;50.47;;;;;;;1.62;100.00;101696.97;6274488;22;20444;-85
2021/01/11 01:38:31;;;;;;;104.70;51.42;;;;;;;1.62;100.00;101696.97;6274849;22;20038;-85
2021/01/11 01:40:57;;;;;;;101.90;48.65;;;;;;;1.60;100.00;101698.00;6271811;22;20112;-84
2021/01/11 01:43:22;;;;;;;102.55;53.08;;;;;;;1.61;100.00;101694.41;6273684;22;20496;-84
2021/01/11 01:45:48;;;;;;;104.57;56.47;;;;;;;1.61;100.00;101695.25;6298379;22;20012;-85
2021/01/11 01:48:15;;;;;;;85.07;43.38;;;;;;;1.58;100.00;101690.13;6272148;22;20015;-85
2021/01/11 01:50:41;;;;;;;104.30;50.78;;;;;;;1.60;100.00;101695.34;6272638;22;20016;-85
2021/01/11 01:53:08;;;;;;;108.15;52.33;;;;;;;1.56;100.00;101692.88;6274097;22;20035;-85
2021/01/11 01:55:36;;;;;;;111.50;54.97;;;;;;;1.56;100.00;101692.88;6272597;22;20016;-85
2021/01/11 01:58:04;;;;;;;110.32;54.78;;;;;;;1.58;100.00;101683.09;6298025;22;20505;-85
2021/01/11 02:00:31;;;;;;;98.28;45.65;;;;;;;1.56;100.00;101686.75;6274859;22;20095;-85
2021/01/11 02:02:58;;;;;;;107.68;54.53;;;;;;;1.56;100.00;101687.59;6297563;22;20046;-85
2021/01/11 02:05:23;;;;;;;115.15;57.72;;;;;;;1.57;100.00;101680.50;6284183;22;20027;-85
2021/01/11 02:07:58;;;;;;;122.53;64.53;;;;;;;1.58;100.00;101685.72;6296095;22;20015;-85
2021/01/11 02:10:23;;;;;;;112.57;51.90;;;;;;;1.54;100.00;101676.22;6322379;22;20003;-85
2021/01/11 02:13:14;;;;;;;99.65;45.80;;;;;;;1.53;100.00;101671.88;6294785;22;20067;-85
2021/01/11 02:15:48;;;;;;;101.32;46.30;;;;;;;1.52;100.00;101658.72;6297031;22;20000;-84
2021/01/11 02:18:19;;;;;;;116.78;58.72;;;;;;;1.55;100.00;101658.56;6296118;22;20004;-85
2021/01/11 02:20:45;;;;;;;122.00;56.13;;;;;;;1.52;100.00;101661.38;6296205;22;20007;-85
2021/01/11 02:23:35;;;;;;;121.10;59.47;;;;;;;1.50;100.00;101669.41;6295321;22;20063;-85
2021/01/11 02:26:08;;;;;;;125.68;60.70;;;;;;;1.49;100.00;101669.50;6295196;22;19999;-84
2021/01/11 02:28:53;;;;;;;113.10;45.95;;;;;;;1.47;100.00;101663.44;6296452;22;20002;-85
2021/01/11 02:31:22;;;;;;;114.70;47.70;;;;;;;1.46;100.00;101661.72;6323992;22;20019;-85
2021/01/11 02:33:51;;;;;;;105.15;43.13;;;;;;;1.42;100.00;101658.41;6269767;22;20008;-85
2021/01/11 02:36:19;;;;;;;122.47;55.85;;;;;;;1.45;100.00;101663.50;6270799;22;20492;-85
2021/01/11 02:38:45;;;;;;;114.57;49.93;;;;;;;1.46;100.00;101664.38;6293431;22;20050;-85
2021/01/11 02:41:10;;;;;;;126.63;55.05;;;;;;;1.47;100.00;101659.00;6268082;22;20000;-85
2021/01/11 02:43:35;;;;;;;119.32;53.55;;;;;;;1.45;100.00;101666.16;6295857;22;20027;-86
2021/01/11 02:46:01;;;;;;;118.18;47.42;;;;;;;1.43;100.00;101651.31;6270495;22;20229;-85
2021/01/11 02:48:52;;;;;;;121.50;50.80;;;;;;;1.45;100.00;101665.31;6272111;22;20071;-85
2021/01/11 02:51:30;;;;;;;117.50;47.45;;;;;;;1.42;100.00;101671.63;6292375;22;19996;-85
2021/01/11 02:54:14;;;;;;;118.82;54.00;;;;;;;1.42;100.00;101661.03;6296263;22;20008;-84
2021/01/11 02:56:54;;;;;;;120.00;46.97;;;;;;;1.41;100.00;101645.25;6270178;22;20027;-85
2021/01/11 02:59:30;;;;;;;116.60;47.22;;;;;;;1.35;100.00;101663.19;6323860;22;20058;-84
2021/01/11 03:02:06;;;;;;;101.38;38.25;;;;;;;1.32;100.00;101643.97;6270800;22;20017;-85
2021/01/11 03:04:33;;;;;;;116.43;47.58;;;;;;;1.32;100.00;101654.53;6246871;22;20015;-85
2021/01/11 03:07:03;;;;;;;125.22;50.38;;;;;;;1.32;100.00;101651.88;6271168;22;20007;-85
2021/01/11 03:09:30;;;;;;;116.25;47.97;;;;;;;1.33;100.00;101648.31;6270987;22;20103;-86
2021/01/11 03:11:59;;;;;;;126.32;48.30;;;;;;;1.29;100.00;101655.56;6270631;22;20023;-85
2021/01/11 03:14:25;;;;;;;117.82;47.90;;;;;;;1.29;100.00;101646.78;6296595;22;20016;-85
2021/01/11 03:16:51;;;;;;;129.27;55.10;;;;;;;1.31;100.00;101647.56;6294550;22;20019;-85
2021/01/11 03:19:17;;;;;;;124.63;49.05;;;;;;;1.28;100.00;101647.72;6269544;22;20022;-85
2021/01/11 03:21:43;;;;;;;121.57;45.45;;;;;;;1.27;100.00;101648.66;6269329;22;20055;-85
2021/01/11 03:24:08;;;;;;;110.32;42.10;;;;;;;1.28;100.00;101637.13;6269664;22;20019;-85
2021/01/11 03:26:35;;;;;;;124.43;49.80;;;;;;;1.27;100.00;101636.28;6296341;22;20017;-85
2021/01/11 03:29:01;;;;;;;137.32;51.17;;;;;;;1.28;100.00;101647.72;6295878;22;20020;-84
2021/01/11 03:31:26;;;;;;;117.72;45.35;;;;;;;1.25;100.00;101643.44;6268112;22;20031;-85
2021/01/11 03:33:52;;;;;;;132.32;53.97;;;;;;;1.27;100.00;101627.50;6293360;22;20011;-85
2021/01/11 03:36:18;;;;;;;134.98;51.42;;;;;;;1.27;100.00;101635.44;6237695;22;20011;-86
2021/01/11 03:38:43;;;;;;;132.70;53.17;;;;;;;1.27;100.00;101632.81;6230934;22;20023;-85
2021/01/11 03:41:09;;;;;;;132.50;49.67;;;;;;;1.27;100.00;101632.81;6280172;22;20081;-86
2021/01/11 03:43:42;;;;;;;126.22;47.58;;;;;;;1.22;100.00;101640.13;6229812;22;20092;-85
2021/01/11 03:46:10;;;;;;;121.43;48.05;;;;;;;1.23;100.00;101647.09;6254663;22;20105;-86
2021/01/11 03:48:36;;;;;;;131.98;52.13;;;;;;;1.22;100.00;101656.00;6253801;22;20091;-86
2021/01/11 03:51:02;;;;;;;135.90;47.72;;;;;;;1.23;100.00;101658.53;6280985;22;20019;-86
2021/01/11 03:53:28;;;;;;;127.90;45.67;;;;;;;1.24;100.00;101654.13;6282220;22;20016;-86
2021/01/11 03:55:53;;;;;;;130.00;46.15;;;;;;;1.21;100.00;101639.28;6252685;22;20105;-85
2021/01/11 03:58:19;;;;;;;128.63;47.15;;;;;;;1.20;100.00;101636.69;6254459;22;20399;-86
2021/01/11 04:00:47;;;;;;;140.00;50.42;;;;;;;1.22;100.00;101634.84;6229897;22;20012;-85
2021/01/11 04:03:12;;;;;;;117.70;43.75;;;;;;;1.21;100.00;101639.28;6281357;22;20473;-86
2021/01/11 04:05:42;;;;;;;109.38;37.60;;;;;;;1.17;100.00;101639.50;6280414;22;20016;-86
2021/01/11 04:08:07;;;;;;;116.38;37.42;;;;;;;1.20;100.00;101639.34;6281616;22;20541;-86
2021/01/11 04:10:34;;;;;;;113.55;39.72;;;;;;;1.19;100.00;101619.13;6281357;22;20011;-86
2021/01/11 04:12:59;;;;;;;101.40;35.38;;;;;;;1.18;100.00;101618.28;6288307;22;20023;-85
2021/01/11 04:15:25;;;;;;;105.05;41.92;;;;;;;1.20;100.00;101615.53;6288525;22;20020;-86
2021/01/11 04:17:50;;;;;;;95.13;31.02;;;;;;;1.17;100.00;101610.44;6254595;22;20007;-86
2021/01/11 04:20:16;;;;;;;109.93;39.28;;;;;;;1.20;100.00;101615.53;6254125;22;20023;-86
2021/01/11 04:22:41;;;;;;;100.40;39.90;;;;;;;1.20;100.00;101624.31;6279178;22;20396;-86
2021/01/11 04:25:07;;;;;;;104.07;42.97;;;;;;;1.21;100.00;101614.59;6227164;22;20016;-86
2021/01/11 04:27:32;;;;;;;103.78;42.58;;;;;;;1.19;100.00;101613.84;6281355;22;20019;-86
2021/01/11 04:29:58;;;;;;;90.85;34.80;;;;;;;1.12;100.00;101619.47;6202632;22;20016;-85
2021/01/11 04:32:23;;;;;;;112.85;40.88;;;;;;;1.09;100.00;101624.94;6227572;22;20022;-86
2021/01/11 04:34:49;;;;;;;101.82;40.45;;;;;;;1.08;100.00;101623.22;6226239;22;20054;-85
2021/01/11 04:37:14;;;;;;;113.57;36.47;;;;;;;1.04;100.00;101621.69;6252801;22;20016;-86
2021/01/11 04:39:40;;;;;;;112.88;42.17;;;;;;;1.02;100.00;101620.03;6251718;22;20011;-86
2021/01/11 04:42:11;;;;;;;111.80;45.90;;;;;;;0.99;100.00;101623.72;6225912;22;20012;-86
2021/01/11 04:44:37;;;;;;;106.32;37.20;;;;;;;0.98;100.00;101615.84;6252731;22;20011;-86
2021/01/11 04:47:03;;;;;;;122.90;47.28;;;;;;;0.99;100.00;101621.06;6250530;22;20023;-85
2021/01/11 04:49:29;;;;;;;113.55;45.05;;;;;;;0.99;100.00;101622.84;6250930;22;20067;-86
2021/01/11 04:51:55;;;;;;;104.53;37.88;;;;;;;0.92;100.00;101606.44;6225900;22;20022;-85
2021/01/11 04:54:21;;;;;;;107.43;42.65;;;;;;;0.94;100.00;101609.88;6253927;22;20083;-86
2021/01/11 04:56:49;;;;;;;99.07;36.95;;;;;;;0.92;100.00;101609.09;6280195;22;20072;-85
2021/01/11 04:59:19;;;;;;;88.40;33.03;;;;;;;0.84;100.00;101609.53;6278944;22;20012;-86
2021/01/11 05:01:49;;;;;;;94.93;39.72;;;;;;;0.81;100.00;101601.75;6251331;22;20453;-86
2021/01/11 05:04:15;;;;;;;90.32;33.72;;;;;;;0.79;100.00;101593.06;6227053;22;20015;-85
2021/01/11 05:06:44;;;;;;;90.22;35.13;;;;;;;0.79;100.00;101585.13;6280142;22;20083;-86
2021/01/11 05:09:13;;;;;;;98.05;40.70;;;;;;;0.80;100.00;101580.69;6250254;22;20035;-86
2021/01/11 05:11:39;;;;;;;95.00;36.27;;;;;;;0.79;100.00;101585.13;6253030;22;20012;-87
2021/01/11 05:14:04;;;;;;;90.47;33.65;;;;;;;0.74;100.00;101579.22;6279492;22;20353;-87
2021/01/11 05:16:30;;;;;;;85.43;29.13;;;;;;;0.70;100.00;101574.22;6251501;22;20008;-86
2021/01/11 05:19:01;;;;;;;85.18;33.30;;;;;;;0.66;100.00;101569.09;6226095;22;20095;-84
2021/01/11 05:21:42;;;;;;;85.15;32.25;;;;;;;0.67;100.00;101557.59;6278384;22;20068;-85
2021/01/11 05:24:33;;;;;;;82.78;33.35;;;;;;;0.62;100.00;101548.19;6251725;22;20015;-85
2021/01/11 05:27:04;;;;;;;82.40;28.83;;;;;;;0.58;100.00;101549.31;6250713;22;20019;-87
2021/01/11 05:29:30;;;;;;;88.25;35.72;;;;;;;0.54;100.00;101532.75;6227368;22;20142;-85
2021/01/11 05:32:00;;;;;;;87.93;34.00;;;;;;;0.55;100.00;101555.59;6247667;22;20019;-87
2021/01/11 05:34:44;;;;;;;87.68;33.08;;;;;;;0.56;100.00;101567.00;6246686;22;20109;-85
2021/01/11 05:37:10;;;;;;;91.05;36.45;;;;;;;0.59;100.00;101570.34;6275473;22;20035;-85
2021/01/11 05:39:36;;;;;;;82.25;28.65;;;;;;;0.56;100.00;101565.22;6198247;22;20065;-85
2021/01/11 05:42:01;;;;;;;100.65;37.22;;;;;;;0.59;100.00;101567.69;6276319;22;20020;-86
2021/01/11 05:44:26;;;;;;;98.75;34.40;;;;;;;0.58;100.00;101558.06;6247112;22;20020;-84
2021/01/11 05:46:52;;;;;;;95.90;38.72;;;;;;;0.59;100.00;101556.28;6277500;22;20019;-84
2021/01/11 05:49:17;;;;;;;108.53;39.75;;;;;;;0.59;100.00;101551.00;6276839;22;20333;-85
2021/01/11 05:51:43;;;;;;;109.57;42.38;;;;;;;0.59;100.00;101551.84;6252830;22;20039;-86
2021/01/11 05:54:28;;;;;;;95.95;31.67;;;;;;;0.58;100.00;101555.44;6276232;22;20065;-85
2021/01/11 05:56:57;;;;;;;103.57;35.63;;;;;;;0.59;100.00;101551.84;6249492;22;20019;-86
2021/01/11 05:59:24;;;;;;;117.65;39.30;;;;;;;0.63;100.00;101553.41;6226059;22;20019;-82
2021/01/11 06:01:58;;;;;;;99.20;35.38;;;;;;;0.61;100.00;101559.69;6272625;22;20091;-83
2021/01/11 06:04:23;;;;;;;104.38;31.85;;;;;;;0.60;100.00;101537.69;6244379;22;20072;-84
2021/01/11 06:06:52;;;;;;;106.13;38.05;;;;;;;0.62;100.00;101545.56;6248886;22;20023;-86
2021/01/11 06:09:20;;;;;;;111.97;41.45;;;;;;;0.62;100.00;101543.75;6241566;22;20016;-84
2021/01/11 06:11:49;;;;;;;132.93;48.50;;;;;;;0.67;100.00;101540.88;6261413;22;20015;-85
2021/01/11 06:14:19;;;;;;;116.45;44.95;;;;;;;0.69;100.00;101549.56;6270455;22;20027;-86
2021/01/11 06:16:44;;;;;;;121.18;38.28;;;;;;;0.68;100.00;101555.78;6274031;22;20077;-85
2021/01/11 06:19:10;;;;;;;127.78;40.50;;;;;;;0.69;100.00;101554.84;6276299;22;20050;-86
2021/01/11 06:21:35;;;;;;;118.30;40.10;;;;;;;0.70;100.00;101567.13;6249549;22;20051;-84
2021/01/11 06:24:15;;;;;;;113.13;42.80;;;;;;;0.71;100.00;101554.78;6248461;22;20646;-84
2021/01/11 06:26:41;;;;;;;117.00;38.35;;;;;;;0.73;100.00;101558.19;6278084;22;20345;-86
2021/01/11 06:29:28;;;;;;;129.00;43.00;;;;;;;0.73;100.00;101552.91;6247520;22;20299;-86
2021/01/11 06:31:57;;;;;;;133.63;44.35;;;;;;;0.73;100.00;101553.75;6274361;22;20041;-85
2021/01/11 06:34:33;;;;;;;132.98;48.47;;;;;;;0.77;100.00;101538.59;6250305;22;20011;-87
2021/01/11 06:36:58;;;;;;;118.68;42.13;;;;;;;0.76;100.00;101547.47;6276040;22;20026;-86
2021/01/11 06:39:30;;;;;;;128.77;43.47;;;;;;;0.78;100.00;101541.16;6271286;22;20040;-85
2021/01/11 06:41:58;;;;;;;131.18;41.85;;;;;;;0.78;100.00;101525.31;6273916;22;20015;-84
2021/01/11 06:44:24;;;;;;;110.03;33.35;;;;;;;0.81;100.00;101530.41;6223242;22;20015;-84
2021/01/11 06:46:51;;;;;;;132.98;43.58;;;;;;;0.83;100.00;101548.81;6273313;22;20012;-86
2021/01/11 06:49:25;;;;;;;131.38;48.67;;;;;;;0.85;100.00;101541.66;6274767;22;20483;-87
2021/01/11 06:52:04;;;;;;;125.25;41.60;;;;;;;0.85;100.00;101536.38;6223771;22;20019;-85
2021/01/11 06:54:38;;;;;;;;;;;;;;;0.87;100.00;101550.38;6248022;22;20015;-85
2021/01/11 06:57:28;;;;;;;133.40;46.75;;;;;;;0.82;100.00;101541.84;6246983;22;19951;-86
2021/01/11 06:59:57;;;;;;;142.98;50.40;;;;;;;0.83;100.00;101538.25;6221684;22;20452;-86
2021/01/11 07:02:24;;;;;;;;;;;;;;;0.84;100.00;101535.53;6248673;22;20095;-86
2021/01/11 07:04:50;;;;;;;143.25;49.47;;;;;;;0.83;100.00;101538.25;6274531;22;20267;-85
2021/01/11 07:07:17;;;;;;;146.27;51.30;;;;;;;0.87;100.00;101531.88;6248645;22;20024;-86
2021/01/11 07:10:01;;;;;;;150.50;50.90;;;;;;;0.91;100.00;101517.53;6277339;22;20020;-86
2021/01/11 07:12:27;;;;;;;136.50;45.70;;;;;;;0.91;100.00;101512.25;6201026;22;20059;-85
2021/01/11 07:14:55;;;;;;;147.85;49.17;;;;;;;0.93;100.00;101505.09;6243954;22;20020;-84
2021/01/11 07:17:39;;;;;;;136.32;45.22;;;;;;;0.96;100.00;101506.72;6273346;22;20020;-86
2021/01/11 07:20:07;;;;;;;146.13;47.80;;;;;;;0.96;100.00;101497.00;6270620;22;20448;-86
2021/01/11 07:22:33;;;;;;;133.98;44.83;;;;;;;1.00;100.00;101501.19;6271468;22;20107;-84
2021/01/11 07:25:06;;;;;;;150.65;50.08;;;;;;;0.99;100.00;101496.84;6271334;22;20373;-86
2021/01/11 07:27:31;;;;;;;149.73;53.38;;;;;;;1.02;100.00;101498.47;6273884;22;20016;-84
2021/01/11 07:29:57;;;;;;;146.52;52.25;;;;;;;1.03;100.00;101494.88;6296958;22;20094;-84
2021/01/11 07:32:23;;;;;;;138.98;50.95;;;;;;;1.04;100.00;101483.38;6273452;22;20015;-84
2021/01/11 07:34:48;;;;;;;128.02;42.65;;;;;;;1.03;100.00;101457.84;6297787;22;20012;-84
2021/01/11 07:37:13;;;;;;;149.35;55.17;;;;;;;1.08;100.00;101490.19;6272986;22;20019;-84
2021/01/11 07:39:39;;;;;;;152.25;57.03;;;;;;;1.07;100.00;101481.41;6271401;22;20492;-83
2021/01/11 07:42:07;;;;;;;126.22;48.30;;;;;;;1.04;100.00;101489.50;6271753;22;20027;-83
2021/01/11 07:44:37;;;;;;;122.72;43.35;;;;;;;1.04;100.00;101473.66;6271880;22;20012;-83
2021/01/11 07:47:09;;;;;;;124.70;46.88;;;;;;;1.05;100.00;101479.78;6243197;22;20090;-83
2021/01/11 07:49:37;;;;;;;117.80;44.13;;;;;;;1.08;100.00;101472.53;6272242;22;20020;-84
2021/01/11 07:52:09;;;;;;;135.15;51.83;;;;;;;1.10;100.00;101461.88;6257693;22;20081;-84
2021/01/11 07:54:35;;;;;;;115.07;43.90;;;;;;;1.09;100.00;101449.59;6247094;22;20440;-84
2021/01/11 07:57:01;;;;;;;127.25;46.53;;;;;;;1.06;100.00;101445.31;6272976;22;20012;-83
2021/01/11 07:59:26;;;;;;;118.13;48.42;;;;;;;1.07;100.00;101432.97;6272212;22;20097;-84
2021/01/11 08:01:52;;;;;;;121.97;48.72;;;;;;;1.09;100.00;101433.72;6245032;22;20439;-83
2021/01/11 08:04:18;;;;;;;139.05;57.08;;;;;;;1.10;100.00;101446.88;6271948;22;20019;-84
2021/01/11 08:06:50;;;;;;;124.07;46.25;;;;;;;1.10;100.00;101443.38;6259045;22;20015;-84
2021/01/11 08:09:16;;;;;;;116.88;47.58;;;;;;;1.09;100.00;101450.47;6274237;22;20019;-83
2021/01/11 08:11:42;;;;;;;105.78;42.42;;;;;;;1.11;100.00;101450.34;6273259;22;20012;-83
2021/01/11 08:14:08;;;;;;;110.07;47.42;;;;;;;1.13;100.00;101451.13;6245176;22;20065;-83
2021/01/11 08:16:40;;;;;;;120.13;50.00;;;;;;;1.14;100.00;101450.19;6274286;22;20553;-84
2021/01/11 08:19:06;;;;;;;115.43;48.47;;;;;;;1.16;100.00;101448.31;6273454;22;20025;-84
2021/01/11 08:21:32;;;;;;;118.25;50.30;;;;;;;1.18;100.00;101437.63;6275104;22;20054;-84
2021/01/11 08:24:06;;;;;;;118.53;52.13;;;;;;;1.20;100.00;101438.41;6273806;22;20012;-83
2021/01/11 08:26:47;;;;;;;122.00;55.53;;;;;;;1.19;100.00;101432.28;6248338;22;20022;-83
2021/01/11 08:29:13;;;;;;;112.20;42.05;;;;;;;1.22;100.00;101434.72;6274016;22;20011;-84
2021/01/11 08:31:39;;;;;;;116.15;50.08;;;;;;;1.21;100.00;101446.25;6274498;22;20353;-84
2021/01/11 08:34:06;;;;;;;110.03;46.25;;;;;;;1.24;100.00;101432.00;6271973;22;20016;-84
2021/01/11 08:36:32;;;;;;;91.35;36.50;;;;;;;1.19;100.00;101434.91;6247089;22;20471;-84
2021/01/11 08:39:15;;;;;;;103.03;48.20;;;;;;;1.22;100.00;101441.81;6273788;22;20012;-84
2021/01/11 08:41:53;;;;;;;110.85;46.85;;;;;;;1.24;100.00;101429.38;6273859;22;20012;-83
2021/01/11 08:44:24;;;;;;;117.65;53.65;;;;;;;1.28;100.00;101436.16;6245369;22;20504;-83
2021/01/11 08:47:01;;;;;;;115.78;50.70;;;;;;;1.27;100.00;101430.03;6273146;22;20364;-83
2021/01/11 08:49:30;;;;;;;100.25;45.58;;;;;;;1.26;100.00;101443.34;6273689;22;20110;-84
2021/01/11 08:52:10;;;;;;;105.97;47.50;;;;;;;1.28;100.00;101439.66;6247651;22;20035;-83
2021/01/11 08:54:36;;;;;;;99.88;44.28;;;;;;;1.29;100.00;101446.66;6267728;22;20768;-83
2021/01/11 08:57:10;;;;;;;101.20;39.03;;;;;;;1.28;100.00;101444.94;6245757;22;20015;-84
2021/01/11 08:59:36;;;;;;;98.45;45.35;;;;;;;1.28;100.00;101447.59;6272674;22;20456;-83
2021/01/11 09:02:01;;;;;;;89.28;39.95;;;;;;;1.27;100.00;101447.69;6272501;22;20012;-83
2021/01/11 09:04:31;;;;;;;83.35;34.35;;;;;;;1.27;100.00;101437.97;6245961;22;20019;-83
2021/01/11 09:07:06;;;;;;;104.05;49.15;;;;;;;1.29;100.00;101443.16;6272402;22;20019;-84
2021/01/11 09:09:36;;;;;;;87.95;40.38;;;;;;;1.29;100.00;101441.34;6271178;22;20015;-83
2021/01/11 09:12:08;;;;;;;83.13;37.25;;;;;;;1.29;100.00;101440.50;6270351;22;20011;-84
2021/01/11 09:14:35;;;;;;;96.32;43.45;;;;;;;1.32;100.00;101456.19;6271057;22;20403;-83
2021/01/11 09:17:05;;;;;;;99.78;47.53;;;;;;;1.33;100.00;101457.91;6270463;22;20012;-84
2021/01/11 09:19:32;;;;;;;90.55;43.13;;;;;;;1.31;100.00;101438.63;6271099;22;20440;-85
2021/01/11 09:21:58;;;;;;;82.30;38.30;;;;;;;1.31;100.00;101444.78;6271654;22;20095;-83
2021/01/11 09:24:27;;;;;;;91.95;42.55;;;;;;;1.33;100.00;101455.28;6270784;22;20094;-84
2021/01/11 09:26:53;;;;;;;;;;;;;;;1.31;100.00;101439.47;6270805;22;20142;-83
2021/01/11 09:29:19;;;;;;;93.28;48.08;;;;;;;1.25;100.00;101461.00;6272589;22;19954;-84
2021/01/11 09:31:44;;;;;;;85.78;42.97;;;;;;;1.31;100.00;101446.56;6269952;22;20012;-83
2021/01/11 09:34:10;;;;;;;87.50;45.35;;;;;;;1.30;100.00;101451.00;6268974;22;20027;-84
2021/01/11 09:36:38;;;;;;;89.45;44.00;;;;;;;1.31;100.00;101447.41;6296203;22;20575;-85
2021/01/11 09:39:08;;;;;;;95.40;49.53;;;;;;;1.33;100.00;101450.00;6293752;22;20046;-84
2021/01/11 09:41:47;;;;;;;89.63;46.67;;;;;;;1.34;100.00;101454.31;6272445;22;20035;-84
2021/01/11 09:44:13;;;;;;;97.93;49.47;;;;;;;1.33;100.00;101444.69;6269739;22;20026;-83
2021/01/11 09:46:40;;;;;;;86.22;44.83;;;;;;;1.33;100.00;101450.00;6243317;22;20015;-83
2021/01/11 09:49:06;;;;;;;102.18;49.42;;;;;;;1.36;100.00;101447.16;6255357;22;20027;-88
2021/01/11 09:51:31;;;;;;;96.20;45.45;;;;;;;1.37;100.00;101453.31;6284433;22;20011;-84
2021/01/11 09:53:57;;;;;;;90.22;46.17;;;;;;;1.38;100.00;101444.41;6242513;22;20033;-83
2021/01/11 09:56:22;;;;;;;87.03;42.92;;;;;;;1.36;100.00;101452.44;6270137;22;20047;-83
2021/01/11 09:58:51;;;;;;;85.90;43.20;;;;;;;1.37;100.00;101448.00;6272235;22;20011;-85
2021/01/11 10:01:16;;;;;;;80.80;36.93;;;;;;;1.39;100.00;101446.13;6291504;22;20046;-85
2021/01/11 10:03:41;;;;;;;87.10;41.70;;;;;;;1.40;100.00;101443.38;6299276;22;20011;-83
2021/01/11 10:06:07;;;;;;;85.70;44.83;;;;;;;1.43;100.00;101445.00;6270577;22;20016;-83
2021/01/11 10:08:36;;;;;;;86.55;43.80;;;;;;;1.43;100.00;101451.13;6269460;22;20015;-84
2021/01/11 10:11:11;;;;;;;77.30;39.47;;;;;;;1.41;100.00;101442.47;6270845;22;20181;-83
2021/01/11 10:13:36;;;;;;;81.13;38.05;;;;;;;1.40;100.00;101442.53;6271749;22;20455;-85
2021/01/11 10:16:02;;;;;;;81.25;38.97;;;;;;;1.40;100.00;101432.81;6245055;22;20054;-84
2021/01/11 10:18:28;;;;;;;85.90;36.60;;;;;;;1.42;100.00;101430.94;6271813;22;20039;-83
2021/01/11 10:20:53;;;;;;;79.85;41.63;;;;;;;1.43;100.00;101423.84;6268603;22;20474;-84
2021/01/11 10:23:18;;;;;;;82.85;44.65;;;;;;;1.44;100.00;101421.13;6296411;22;20630;-83
2021/01/11 10:25:47;;;;;;;75.13;34.50;;;;;;;1.41;100.00;101407.22;6271330;22;20019;-84
2021/01/11 10:28:12;;;;;;;82.75;38.42;;;;;;;1.44;100.00;101412.31;6269217;22;20016;-83
2021/01/11 10:30:38;;;;;;;85.47;45.08;;;;;;;1.46;100.00;101410.44;6267709;22;20334;-82
2021/01/11 10:33:03;;;;;;;83.05;39.67;;;;;;;1.46;100.00;101400.69;6269049;22;20341;-84
2021/01/11 10:35:29;;;;;;;77.43;37.60;;;;;;;1.46;100.00;101390.13;6271600;22;20479;-84
2021/01/11 10:37:54;;;;;;;79.65;41.80;;;;;;;1.47;100.00;101394.50;6268231;22;20792;-84
2021/01/11 10:40:20;;;;;;;79.38;41.22;;;;;;;1.46;100.00;101390.13;6244217;22;20020;-84
2021/01/11 10:42:47;;;;;;;84.25;41.33;;;;;;;1.48;100.00;101375.03;6267981;22;20031;-83
2021/01/11 10:45:13;;;;;;;85.43;41.45;;;;;;;1.51;100.00;101371.34;6257852;22;20463;-84
2021/01/11 10:47:39;;;;;;;76.65;36.53;;;;;;;1.49;100.00;101379.34;6255589;22;20016;-83
2021/01/11 10:50:05;;;;;;;85.97;40.88;;;;;;;1.53;100.00;101367.66;6269117;22;20360;-82
2021/01/11 10:52:30;;;;;;;72.20;33.72;;;;;;;1.51;100.00;101366.91;6271834;22;20091;-83
2021/01/11 10:54:55;;;;;;;85.82;43.85;;;;;;;1.56;100.00;101364.84;6294442;22;20043;-84
2021/01/11 10:57:21;;;;;;;81.18;37.53;;;;;;;1.56;100.00;101351.63;6271709;22;20100;-83
2021/01/11 10:59:46;;;;;;;84.85;42.03;;;;;;;1.58;100.00;101352.38;6267203;22;20062;-82
2021/01/11 11:02:12;;;;;;;73.90;34.20;;;;;;;1.55;100.00;101344.63;6295717;22;20023;-85
2021/01/11 11:04:37;;;;;;;81.45;38.75;;;;;;;1.58;100.00;101349.72;6271273;22;20083;-85
2021/01/11 11:07:03;;;;;;;76.82;38.65;;;;;;;1.61;100.00;101347.81;6295999;22;20090;-84
2021/01/11 11:09:29;;;;;;;84.90;42.65;;;;;;;1.64;100.00;101331.75;6261645;22;20023;-84